createdAt,value
2022-08-22T00:02:47.662Z,51.291534
2022-08-22T00:02:58.171Z,51.291126
2022-08-22T06:14:24.787Z,51.291157
2022-08-22T06:15:24.244Z,51.291065
2022-08-22T06:16:24.239Z,51.291195
2022-08-22T06:17:24.303Z,51.291180
2022-08-22T06:18:24.250Z,51.291069
2022-08-22T06:19:24.181Z,51.291107
2022-08-22T06:20:24.167Z,51.291203
2022-08-22T06:21:24.207Z,51.291080
2022-08-22T06:22:24.358Z,51.291149
2022-08-22T06:23:24.240Z,51.291016
2022-08-22T06:24:24.207Z,51.291126
2022-08-22T06:25:24.308Z,51.290920
2022-08-22T06:26:24.167Z,51.291046
2022-08-22T06:27:24.334Z,51.291161
2022-08-22T06:28:24.137Z,51.291195
2022-08-22T07:08:10.924Z,51.291992
2022-08-22T07:09:10.972Z,51.291935
2022-08-22T07:10:10.937Z,51.291576
2022-08-22T07:11:10.892Z,51.291729
2022-08-22T07:12:10.866Z,51.291363
2022-08-22T07:13:10.866Z,51.291134
2022-08-22T07:14:10.852Z,51.291237
2022-08-22T07:15:10.889Z,51.291267
2022-08-22T07:16:11.247Z,51.291317
2022-08-22T07:38:23.890Z,51.291245
2022-08-22T07:39:23.813Z,51.291298
2022-08-22T07:40:23.821Z,51.291061
2022-08-22T07:41:23.797Z,51.291107
2022-08-22T07:42:26.512Z,51.291019
2022-08-22T20:05:27.211Z,51.290993
2022-08-22T21:20:44.276Z,51.290989
2022-08-22T21:21:51.955Z,51.290882
2022-08-22T21:56:18.503Z,51.291264
2022-08-22T21:57:18.253Z,51.291225
2022-08-22T21:58:35.830Z,51.291214
2022-08-22T21:59:18.174Z,51.291157
2022-08-22T22:00:19.214Z,51.291004
2022-08-22T22:01:18.335Z,51.291073
2022-08-22T22:02:18.167Z,51.291100
2022-08-22T22:03:19.489Z,51.291142
